Time;durP1;ratioP1;P1;durP2;ratioP2;P2;SDS_P1;SDS_P2;PMS_P1;PMS_P2;Temp;Humidity;BMP_temperature;BMP_pressure;BME280_temperature;BME280_humidity;BME280_pressure;Samples;Min_cycle;Max_cycle;Signal;HPM_P1;HPM_P2
2021/12/30 00:02:18;;;;;;;0.60;0.60;;;7.20;99.90;;;;;;5033793;28;20057;-84
2021/12/30 00:04:44;;;;;;;0.77;0.77;;;7.20;99.90;;;;;;5029149;28;20120;-85
2021/12/30 00:07:10;;;;;;;0.60;0.60;;;7.10;99.90;;;;;;5078424;28;20036;-84
2021/12/30 00:09:38;;;;;;;0.68;0.68;;;7.10;99.90;;;;;;5060804;28;20048;-84
2021/12/30 00:12:05;;;;;;;6.70;1.48;;;7.10;99.90;;;;;;5056193;28;20408;-85
2021/12/30 00:14:31;;;;;;;0.60;0.60;;;7.00;99.90;;;;;;5045260;28;20132;-84
2021/12/30 00:16:57;;;;;;;0.70;0.70;;;7.00;99.90;;;;;;5040454;28;20041;-84
2021/12/30 00:19:22;;;;;;;1.00;1.00;;;7.00;99.90;;;;;;5054373;28;20037;-83
2021/12/30 00:21:48;;;;;;;0.60;0.60;;;7.00;99.90;;;;;;5075992;28;20119;-83
2021/12/30 00:24:14;;;;;;;28.42;2.50;;;7.10;99.90;;;;;;5068441;28;20047;-84
2021/12/30 00:26:39;;;;;;;2.85;0.98;;;7.10;99.90;;;;;;5056247;28;20041;-86
2021/12/30 00:29:05;;;;;;;1.10;1.08;;;7.10;99.90;;;;;;5058872;28;20083;-86
2021/12/30 00:31:31;;;;;;;0.98;0.93;;;7.10;99.90;;;;;;5040183;28;20044;-86
2021/12/30 00:33:57;;;;;;;0.70;0.70;;;7.20;99.90;;;;;;5054185;28;20048;-84
2021/12/30 00:36:23;;;;;;;0.70;0.70;;;7.10;99.90;;;;;;5055756;28;20042;-85
2021/12/30 00:38:49;;;;;;;0.70;0.70;;;7.20;99.90;;;;;;5058623;28;20041;-86
2021/12/30 00:41:15;;;;;;;0.55;0.55;;;7.20;99.90;;;;;;5057490;28;20037;-86
2021/12/30 00:43:41;;;;;;;2.13;0.70;;;7.20;99.90;;;;;;5057651;28;20127;-85
2021/12/30 00:46:08;;;;;;;1.08;1.08;;;7.20;99.90;;;;;;5058673;28;20048;-85
2021/12/30 00:48:34;;;;;;;0.60;0.60;;;7.20;99.90;;;;;;5059938;28;20258;-86
2021/12/30 00:51:00;;;;;;;0.75;0.75;;;7.20;99.90;;;;;;5042243;28;20037;-85
2021/12/30 00:53:25;;;;;;;0.70;0.70;;;7.30;99.90;;;;;;5059890;28;20436;-86
2021/12/30 00:55:51;;;;;;;1.00;0.95;;;7.30;99.90;;;;;;5059109;28;20068;-85
2021/12/30 00:58:17;;;;;;;1.48;1.30;;;7.30;99.90;;;;;;5058461;28;20044;-85
2021/12/30 01:00:44;;;;;;;0.60;0.60;;;7.30;99.90;;;;;;5058806;28;20100;-84
2021/12/30 01:03:12;;;;;;;0.60;0.60;;;7.20;99.90;;;;;;5057958;28;20048;-85
2021/12/30 01:05:38;;;;;;;0.80;0.80;;;7.10;99.90;;;;;;5043109;28;20041;-85
2021/12/30 01:08:05;;;;;;;0.60;0.60;;;7.00;99.90;;;;;;5054982;28;20107;-84
2021/12/30 01:10:32;;;;;;;0.60;0.60;;;7.00;99.90;;;;;;5057329;28;20150;-85
2021/12/30 01:13:00;;;;;;;0.50;0.50;;;6.90;99.90;;;;;;5054985;28;20065;-85
2021/12/30 01:15:34;;;;;;;0.70;0.60;;;6.90;99.90;;;;;;5041634;28;20086;-84
2021/12/30 01:20:47;;;;;;;0.60;0.60;;;6.90;99.90;;;;;;5069282;28;20204;-85
2021/12/30 01:23:13;;;;;;;0.93;0.93;;;6.90;99.90;;;;;;5074999;28;20044;-84
2021/12/30 01:25:39;;;;;;;5.35;3.33;;;6.90;99.90;;;;;;5057422;28;20051;-84
2021/12/30 01:28:04;;;;;;;1.58;1.15;;;6.90;99.90;;;;;;5060546;28;20132;-84
2021/12/30 01:30:30;;;;;;;0.60;0.60;;;6.90;99.90;;;;;;5053447;28;20040;-84
2021/12/30 01:32:55;;;;;;;0.60;0.60;;;6.80;99.90;;;;;;5053504;28;20106;-84
2021/12/30 01:35:25;;;;;;;1.60;1.05;;;6.80;99.90;;;;;;5060086;28;20143;-84
2021/12/30 01:37:51;;;;;;;0.60;0.60;;;6.80;99.90;;;;;;5052689;28;20045;-86
2021/12/30 01:40:18;;;;;;;2.67;2.47;;;6.70;99.90;;;;;;5058147;28;20056;-85
2021/12/30 01:42:44;;;;;;;0.90;0.60;;;6.70;99.90;;;;;;5058766;28;20121;-85
2021/12/30 01:45:11;;;;;;;5.68;1.67;;;6.70;99.90;;;;;;5043135;28;20041;-86
2021/12/30 01:47:42;;;;;;;1.50;1.10;;;6.70;99.90;;;;;;5057885;28;20116;-85
2021/12/30 01:50:09;;;;;;;0.90;0.85;;;6.70;99.90;;;;;;5057844;28;20041;-86
2021/12/30 01:52:34;;;;;;;0.70;0.70;;;6.70;99.90;;;;;;5042076;28;20049;-85
2021/12/30 01:55:00;;;;;;;0.75;0.75;;;6.70;99.90;;;;;;5058411;28;20120;-85
2021/12/30 01:57:26;;;;;;;1.55;1.45;;;6.80;99.90;;;;;;5055171;28;20060;-85
2021/12/30 01:59:52;;;;;;;1.00;0.90;;;6.80;99.90;;;;;;5057949;28;20041;-85
2021/12/30 02:02:17;;;;;;;0.60;0.60;;;6.80;99.90;;;;;;5055683;28;20045;-85
2021/12/30 02:04:43;;;;;;;0.80;0.80;;;6.80;99.90;;;;;;5038743;28;20308;-85
2021/12/30 02:07:09;;;;;;;0.60;0.60;;;6.90;99.90;;;;;;5053916;28;20118;-85
2021/12/30 02:09:35;;;;;;;0.77;0.77;;;6.90;99.90;;;;;;5071370;28;20276;-85
2021/12/30 02:12:02;;;;;;;3.50;1.50;;;6.80;99.90;;;;;;5057667;28;20170;-85
2021/12/30 02:14:33;;;;;;;2.05;0.85;;;6.80;99.90;;;;;;5050394;28;20067;-84
2021/12/30 02:16:58;;;;;;;0.70;0.70;;;6.90;99.90;;;;;;5061847;28;20105;-85
2021/12/30 02:19:24;;;;;;;2.92;1.95;;;6.90;99.90;;;;;;5059650;28;20041;-85
2021/12/30 02:21:49;;;;;;;15.00;0.88;;;6.90;99.90;;;;;;5049499;28;20123;-86
2021/12/30 02:24:15;;;;;;;1.35;1.30;;;6.80;99.90;;;;;;5065188;28;20045;-86
2021/12/30 02:26:41;;;;;;;5.15;1.02;;;6.80;99.90;;;;;;5056933;28;20190;-86
2021/12/30 02:29:06;;;;;;;0.52;0.52;;;6.70;99.90;;;;;;5058942;28;20045;-86
2021/12/30 02:31:32;;;;;;;1.05;1.05;;;6.70;99.90;;;;;;5040411;28;20239;-86
2021/12/30 02:33:58;;;;;;;1.95;1.50;;;6.60;99.90;;;;;;5058621;28;20442;-86
2021/12/30 02:36:30;;;;;;;2.15;2.05;;;6.60;99.90;;;;;;5042344;28;20037;-86
2021/12/30 02:38:56;;;;;;;0.60;0.60;;;6.60;99.90;;;;;;5056582;28;20083;-86
2021/12/30 02:41:22;;;;;;;0.60;0.60;;;6.50;99.90;;;;;;5055106;28;20041;-86
2021/12/30 02:43:49;;;;;;;0.98;0.98;;;6.50;99.90;;;;;;5042095;28;20067;-86
2021/12/30 02:46:19;;;;;;;1.73;1.63;;;6.50;99.90;;;;;;5058022;28;20041;-85
2021/12/30 02:48:45;;;;;;;0.75;0.75;;;6.50;99.90;;;;;;5058168;28;20040;-84
2021/12/30 02:51:11;;;;;;;0.80;0.80;;;6.50;99.90;;;;;;5058526;28;20462;-85
2021/12/30 02:53:38;;;;;;;1.20;0.88;;;6.50;99.90;;;;;;5058722;28;20045;-85
2021/12/30 02:56:05;;;;;;;2.05;1.33;;;6.60;99.90;;;;;;5067352;28;20049;-84
2021/12/30 02:58:31;;;;;;;0.60;0.60;;;6.60;99.90;;;;;;5069588;28;20041;-85
2021/12/30 03:01:10;;;;;;;0.60;0.60;;;6.60;99.90;;;;;;5040793;28;20069;-85
2021/12/30 03:03:36;;;;;;;0.63;0.63;;;6.60;99.90;;;;;;5057706;28;20051;-84
2021/12/30 03:06:04;;;;;;;1.52;1.42;;;6.70;99.90;;;;;;5041488;28;20102;-84
2021/12/30 03:08:31;;;;;;;2.28;1.80;;;6.80;99.90;;;;;;5040963;28;20504;-85
2021/12/30 03:10:57;;;;;;;1.30;1.25;;;6.80;99.90;;;;;;5059464;28;20144;-85
2021/12/30 03:13:31;;;;;;;1.20;1.13;;;6.80;99.90;;;;;;5059179;28;20040;-85
2021/12/30 03:16:08;;;;;;;0.70;0.70;;;6.80;99.90;;;;;;5056213;28;20061;-85
2021/12/30 03:18:36;;;;;;;0.70;0.70;;;7.00;99.90;;;;;;5040540;28;20076;-85
2021/12/30 03:21:04;;;;;;;6.55;1.23;;;7.00;99.90;;;;;;5069611;28;20128;-85
2021/12/30 03:23:30;;;;;;;0.65;0.65;;;7.00;99.90;;;;;;5058928;28;20514;-85
2021/12/30 03:25:56;;;;;;;0.60;0.60;;;7.10;99.90;;;;;;5049099;28;20100;-84
2021/12/30 03:28:22;;;;;;;3.13;2.60;;;7.10;99.90;;;;;;5057504;28;20071;-84
2021/12/30 03:30:49;;;;;;;2.90;1.15;;;7.10;99.90;;;;;;5057247;28;20041;-84
2021/12/30 03:33:15;;;;;;;0.63;0.63;;;7.20;99.90;;;;;;5056857;28;20037;-85
2021/12/30 03:35:40;;;;;;;1.83;1.73;;;7.20;99.90;;;;;;5059292;28;20055;-85
2021/12/30 03:38:06;;;;;;;0.88;0.88;;;7.20;99.90;;;;;;5057865;28;20051;-85
2021/12/30 03:40:33;;;;;;;9.23;1.85;;;7.20;99.90;;;;;;5057988;28;20057;-85
2021/12/30 03:42:59;;;;;;;0.70;0.70;;;7.20;99.90;;;;;;5047619;28;20123;-85
2021/12/30 03:45:25;;;;;;;1.17;1.08;;;7.30;99.90;;;;;;5055437;28;20090;-85
2021/12/30 03:47:51;;;;;;;0.90;0.90;;;7.30;99.90;;;;;;5052478;28;20049;-85
2021/12/30 03:50:22;;;;;;;4.95;1.00;;;7.30;99.90;;;;;;5073396;28;20405;-86
2021/12/30 03:52:54;;;;;;;0.73;0.73;;;7.30;99.90;;;;;;5057798;28;20469;-85
2021/12/30 03:55:22;;;;;;;0.70;0.70;;;7.30;99.90;;;;;;5041970;28;20739;-84
2021/12/30 03:57:49;;;;;;;1.38;1.20;;;7.30;99.90;;;;;;5044843;28;20037;-85
2021/12/30 04:00:15;;;;;;;0.60;0.60;;;7.30;99.90;;;;;;5041685;28;20108;-85
2021/12/30 04:02:41;;;;;;;1.45;1.08;;;7.30;99.90;;;;;;5040823;28;20053;-86
2021/12/30 04:05:09;;;;;;;1.23;1.13;;;7.40;99.90;;;;;;5059712;28;20045;-85
2021/12/30 04:07:35;;;;;;;0.73;0.73;;;7.40;99.90;;;;;;5053726;28;20054;-86
2021/12/30 04:10:00;;;;;;;0.70;0.70;;;7.50;99.90;;;;;;5040409;28;20072;-85
2021/12/30 04:12:26;;;;;;;0.70;0.70;;;7.50;99.90;;;;;;5052247;28;20033;-85
2021/12/30 04:14:51;;;;;;;0.75;0.75;;;7.50;99.90;;;;;;5057367;28;20077;-86
2021/12/30 04:17:17;;;;;;;1.27;1.20;;;7.50;99.90;;;;;;5060625;28;20045;-86
2021/12/30 04:19:43;;;;;;;0.90;0.90;;;7.50;99.90;;;;;;5062953;28;20053;-84
2021/12/30 04:22:08;;;;;;;1.80;1.70;;;7.60;99.90;;;;;;5060967;28;20033;-85
2021/12/30 04:24:34;;;;;;;1.02;1.02;;;7.60;99.90;;;;;;5060956;28;20450;-84
2021/12/30 04:26:59;;;;;;;2.30;1.10;;;7.60;99.90;;;;;;5044513;28;20052;-85
2021/12/30 04:29:25;;;;;;;0.52;0.52;;;7.60;99.90;;;;;;5073839;28;20052;-85
2021/12/30 04:31:51;;;;;;;8.30;1.40;;;7.70;99.90;;;;;;5042910;28;20049;-85
2021/12/30 04:34:16;;;;;;;10.15;1.25;;;7.60;99.90;;;;;;5056275;28;20121;-84
2021/12/30 04:36:42;;;;;;;1.60;1.50;;;7.70;99.90;;;;;;5059240;28;20044;-85
2021/12/30 04:39:08;;;;;;;0.60;0.60;;;7.70;99.90;;;;;;5045217;28;20143;-85
2021/12/30 04:41:33;;;;;;;3.22;1.15;;;7.70;99.90;;;;;;5043951;28;20056;-85
2021/12/30 04:43:59;;;;;;;0.50;0.50;;;7.70;99.90;;;;;;5041627;28;20104;-85
2021/12/30 04:46:25;;;;;;;0.60;0.60;;;7.70;99.90;;;;;;5043262;28;20057;-85
2021/12/30 04:48:51;;;;;;;0.70;0.70;;;7.70;99.90;;;;;;5055703;28;20139;-85
2021/12/30 04:51:17;;;;;;;0.75;0.75;;;7.70;99.90;;;;;;5059593;28;20043;-84
2021/12/30 04:53:43;;;;;;;0.60;0.60;;;7.70;99.90;;;;;;5057390;28;20068;-84
2021/12/30 04:56:09;;;;;;;0.60;0.60;;;7.80;99.90;;;;;;5059078;28;20048;-85
2021/12/30 04:58:35;;;;;;;0.60;0.60;;;7.90;99.90;;;;;;5053242;28;20045;-83
2021/12/30 05:01:01;;;;;;;0.70;0.70;;;7.90;99.90;;;;;;5040549;28;20373;-85
2021/12/30 05:03:27;;;;;;;1.00;1.00;;;8.00;99.90;;;;;;5057639;28;20071;-84
2021/12/30 05:05:53;;;;;;;1.13;0.80;;;8.10;99.90;;;;;;5059323;28;20037;-85
2021/12/30 05:08:23;;;;;;;1.38;0.93;;;8.30;99.90;;;;;;5039870;28;20044;-85
2021/12/30 05:10:50;;;;;;;1.05;1.05;;;8.30;99.90;;;;;;5042797;28;20051;-85
2021/12/30 05:13:16;;;;;;;0.50;0.50;;;8.50;99.90;;;;;;5055033;28;20099;-84
2021/12/30 05:15:42;;;;;;;0.70;0.70;;;8.50;99.90;;;;;;5033740;28;20041;-85
2021/12/30 05:18:10;;;;;;;0.85;0.85;;;8.70;99.90;;;;;;5056655;28;20083;-85
2021/12/30 05:20:37;;;;;;;0.70;0.70;;;8.80;99.90;;;;;;5040859;28;20069;-84
2021/12/30 05:23:04;;;;;;;8.93;2.80;;;8.90;99.90;;;;;;5069634;28;20046;-85
2021/12/30 05:25:29;;;;;;;0.82;0.82;;;8.90;99.90;;;;;;5059995;28;20061;-83
2021/12/30 05:27:55;;;;;;;0.80;0.80;;;8.90;99.90;;;;;;5042283;28;20068;-84
2021/12/30 05:30:22;;;;;;;4.38;1.20;;;8.90;99.90;;;;;;5043017;28;20033;-84
2021/12/30 05:32:48;;;;;;;0.73;0.70;;;9.00;99.90;;;;;;5056227;28;20052;-85
2021/12/30 05:35:15;;;;;;;1.40;1.30;;;9.00;99.90;;;;;;5057735;28;20045;-85
2021/12/30 05:37:42;;;;;;;1.98;1.08;;;9.10;99.90;;;;;;5059428;28;20041;-84
2021/12/30 05:40:11;;;;;;;0.90;0.90;;;9.10;99.90;;;;;;5057552;28;20087;-84
2021/12/30 05:42:37;;;;;;;0.63;0.63;;;9.10;99.90;;;;;;5048076;28;20135;-84
2021/12/30 05:45:03;;;;;;;0.90;0.90;;;9.10;99.90;;;;;;5044001;28;20032;-86
2021/12/30 05:47:30;;;;;;;0.77;0.77;;;9.20;99.90;;;;;;5057230;28;20259;-86
2021/12/30 05:49:56;;;;;;;2.28;1.90;;;9.20;99.90;;;;;;5060260;28;20629;-86
2021/12/30 05:52:21;;;;;;;1.00;0.98;;;9.20;99.90;;;;;;5055017;28;20108;-86
2021/12/30 05:54:47;;;;;;;0.68;0.68;;;9.30;99.90;;;;;;5043890;28;20052;-85
2021/12/30 05:57:13;;;;;;;0.80;0.80;;;9.30;99.90;;;;;;5043156;28;20053;-85
2021/12/30 05:59:39;;;;;;;0.82;0.82;;;9.30;99.90;;;;;;5046324;28;20382;-87
2021/12/30 06:02:05;;;;;;;1.45;1.02;;;9.30;99.90;;;;;;5066706;28;20044;-85
2021/12/30 06:04:30;;;;;;;0.80;0.80;;;9.30;99.90;;;;;;5059143;28;20108;-85
2021/12/30 06:06:56;;;;;;;0.50;0.50;;;9.30;99.90;;;;;;5060981;28;20048;-86
2021/12/30 06:09:24;;;;;;;0.60;0.60;;;9.30;99.90;;;;;;5059343;28;20048;-86
2021/12/30 06:11:50;;;;;;;0.85;0.85;;;9.30;99.90;;;;;;5041502;28;20045;-86
2021/12/30 06:14:15;;;;;;;1.25;1.20;;;9.30;99.90;;;;;;5042878;28;20044;-85
2021/12/30 06:16:41;;;;;;;0.60;0.60;;;9.40;99.90;;;;;;5058008;28;20037;-84
2021/12/30 06:19:06;;;;;;;0.57;0.57;;;9.40;99.90;;;;;;5051900;28;20094;-85
2021/12/30 06:21:32;;;;;;;0.73;0.73;;;9.40;99.90;;;;;;5057518;28;20062;-85
2021/12/30 06:23:58;;;;;;;0.70;0.70;;;9.50;99.90;;;;;;5060302;28;20120;-84
2021/12/30 06:26:24;;;;;;;0.73;0.73;;;9.50;99.90;;;;;;5042400;28;20095;-85
2021/12/30 06:28:49;;;;;;;0.60;0.60;;;9.50;99.90;;;;;;5042031;28;20059;-85
2021/12/30 06:31:15;;;;;;;0.85;0.85;;;9.50;99.90;;;;;;5062242;28;20041;-85
2021/12/30 06:33:40;;;;;;;0.60;0.60;;;9.50;99.90;;;;;;5058496;28;20051;-84
2021/12/30 06:36:06;;;;;;;0.60;0.60;;;9.60;99.90;;;;;;5053589;28;20080;-85
2021/12/30 06:38:33;;;;;;;1.13;1.00;;;9.60;99.90;;;;;;5041007;28;20064;-85
2021/12/30 06:40:59;;;;;;;0.60;0.60;;;9.60;99.90;;;;;;5057950;28;20069;-85
2021/12/30 06:43:24;;;;;;;0.80;0.80;;;9.50;99.90;;;;;;5055527;28;20036;-85
2021/12/30 06:45:50;;;;;;;0.80;0.80;;;9.60;99.90;;;;;;5057449;28;20037;-85
2021/12/30 06:48:16;;;;;;;0.85;0.85;;;9.60;99.90;;;;;;5056874;28;20151;-86
2021/12/30 06:50:51;;;;;;;0.60;0.60;;;9.70;99.90;;;;;;5057776;28;20481;-84
2021/12/30 06:53:17;;;;;;;0.73;0.73;;;9.70;99.90;;;;;;5057887;28;20040;-85
2021/12/30 06:55:46;;;;;;;1.73;1.60;;;9.80;99.90;;;;;;5058124;28;20041;-85
2021/12/30 06:58:12;;;;;;;0.73;0.73;;;9.80;99.90;;;;;;5058204;28;20093;-85
2021/12/30 07:00:38;;;;;;;0.95;0.95;;;9.80;99.90;;;;;;5040754;28;20052;-84
2021/12/30 07:03:05;;;;;;;0.70;0.70;;;9.80;99.90;;;;;;5057436;28;20167;-85
2021/12/30 07:05:31;;;;;;;1.33;1.20;;;9.90;99.90;;;;;;5042326;28;20060;-84
2021/12/30 07:07:57;;;;;;;1.10;1.10;;;9.90;99.90;;;;;;5058435;28;20067;-85
2021/12/30 07:10:23;;;;;;;0.80;0.80;;;9.90;99.90;;;;;;5041482;28;20045;-85
2021/12/30 07:12:48;;;;;;;0.85;0.85;;;10.00;99.90;;;;;;5054473;28;20075;-85
2021/12/30 07:15:14;;;;;;;0.60;0.60;;;10.00;99.90;;;;;;5059592;28;20540;-85
2021/12/30 07:17:40;;;;;;;0.60;0.60;;;10.00;99.90;;;;;;5072073;28;20059;-85
2021/12/30 07:20:07;;;;;;;2.22;1.13;;;10.00;99.90;;;;;;5042129;28;20048;-85
2021/12/30 07:22:33;;;;;;;2.75;1.35;;;10.00;99.90;;;;;;5057839;28;20484;-85
2021/12/30 07:24:58;;;;;;;1.92;1.48;;;10.00;99.90;;;;;;5037475;28;20041;-84
2021/12/30 07:27:24;;;;;;;0.60;0.60;;;10.00;99.90;;;;;;5042102;28;20048;-85
2021/12/30 07:29:50;;;;;;;0.50;0.50;;;10.10;99.90;;;;;;5041837;28;20029;-85
2021/12/30 07:32:15;;;;;;;1.00;1.00;;;10.10;99.90;;;;;;5055276;28;20041;-84
2021/12/30 07:34:41;;;;;;;0.50;0.50;;;10.20;99.90;;;;;;5053997;28;20037;-85
2021/12/30 07:37:07;;;;;;;1.48;0.70;;;10.20;99.90;;;;;;5057938;28;20131;-85
2021/12/30 07:39:32;;;;;;;0.55;0.55;;;10.20;99.90;;;;;;5058555;28;20066;-84
2021/12/30 07:41:58;;;;;;;0.70;0.70;;;10.20;99.90;;;;;;5072571;28;20539;-85
2021/12/30 07:44:23;;;;;;;0.50;0.50;;;10.20;99.90;;;;;;5053999;28;20045;-85
2021/12/30 07:46:49;;;;;;;0.80;0.80;;;10.20;99.90;;;;;;5040431;28;20037;-84
2021/12/30 07:49:15;;;;;;;0.77;0.77;;;10.20;99.90;;;;;;5054549;28;20029;-83
2021/12/30 07:51:40;;;;;;;0.60;0.60;;;10.20;99.90;;;;;;5043964;28;20048;-83
2021/12/30 07:54:06;;;;;;;1.20;1.10;;;10.20;99.90;;;;;;5061884;28;20056;-83
2021/12/30 07:56:31;;;;;;;0.55;0.55;;;10.30;99.90;;;;;;5062735;28;20048;-85
2021/12/30 07:58:58;;;;;;;0.63;0.63;;;10.30;99.90;;;;;;5063768;28;20071;-85
2021/12/30 08:01:23;;;;;;;0.70;0.70;;;10.30;99.90;;;;;;5043936;28;20033;-84
2021/12/30 08:03:49;;;;;;;0.60;0.60;;;10.30;99.90;;;;;;5051927;28;20130;-85
2021/12/30 08:06:15;;;;;;;0.80;0.80;;;10.30;99.90;;;;;;5071579;28;20037;-84
2021/12/30 08:08:40;;;;;;;0.68;0.68;;;10.40;99.90;;;;;;5059129;28;20071;-85
2021/12/30 08:11:06;;;;;;;0.55;0.55;;;10.40;99.90;;;;;;5075030;28;20112;-83
2021/12/30 08:13:32;;;;;;;0.80;0.80;;;10.40;99.90;;;;;;5051468;28;20064;-83
2021/12/30 08:15:57;;;;;;;0.50;0.50;;;10.60;99.90;;;;;;5056709;28;20043;-82
2021/12/30 08:18:23;;;;;;;0.50;0.50;;;10.50;99.90;;;;;;5061777;28;20041;-83
2021/12/30 08:20:48;;;;;;;0.93;0.93;;;10.50;99.90;;;;;;5062508;28;20047;-82
2021/12/30 08:23:14;;;;;;;0.68;0.68;;;10.60;99.90;;;;;;5062435;28;20083;-82
2021/12/30 08:25:40;;;;;;;0.60;0.60;;;10.60;99.90;;;;;;5062918;28;20045;-83
2021/12/30 08:28:05;;;;;;;0.50;0.50;;;10.60;99.90;;;;;;5061838;28;20037;-83
2021/12/30 08:30:31;;;;;;;0.98;0.98;;;10.60;99.90;;;;;;5059769;28;20052;-82
2021/12/30 08:32:56;;;;;;;0.50;0.50;;;10.70;99.90;;;;;;5054380;28;20191;-82
2021/12/30 08:35:23;;;;;;;0.50;0.50;;;10.80;99.90;;;;;;5061700;28;20045;-81
2021/12/30 08:37:51;;;;;;;0.60;0.60;;;10.70;99.90;;;;;;5061292;28;20045;-82
2021/12/30 08:40:17;;;;;;;0.60;0.60;;;10.80;99.90;;;;;;5061646;28;20033;-82
2021/12/30 08:42:44;;;;;;;0.50;0.50;;;10.80;99.90;;;;;;5061443;28;20032;-82
2021/12/30 08:45:11;;;;;;;0.57;0.57;;;10.80;99.90;;;;;;5063016;28;20049;-83
2021/12/30 08:47:37;;;;;;;0.55;0.55;;;10.80;99.90;;;;;;5057904;28;20048;-84
2021/12/30 08:50:05;;;;;;;0.60;0.60;;;10.90;99.90;;;;;;5058208;28;20094;-82
2021/12/30 08:52:31;;;;;;;0.55;0.55;;;10.90;99.90;;;;;;5062051;28;20052;-82
2021/12/30 08:55:04;;;;;;;0.60;0.60;;;10.90;99.90;;;;;;5044623;28;20434;-82
2021/12/30 08:57:31;;;;;;;0.50;0.50;;;10.90;99.90;;;;;;5060062;28;20076;-83
2021/12/30 08:59:57;;;;;;;0.50;0.50;;;11.00;99.90;;;;;;5062661;28;20048;-83
2021/12/30 09:02:23;;;;;;;0.77;0.77;;;10.90;99.90;;;;;;5051414;28;20136;-82
2021/12/30 09:04:49;;;;;;;0.73;0.73;;;10.90;99.90;;;;;;5043637;28;20037;-81
2021/12/30 09:07:18;;;;;;;0.55;0.55;;;11.00;99.90;;;;;;5060260;28;20578;-82
2021/12/30 09:09:43;;;;;;;2.13;0.70;;;11.00;99.90;;;;;;5061348;28;20465;-84
2021/12/30 09:12:09;;;;;;;1.15;1.15;;;11.10;99.90;;;;;;5074475;28;20044;-85
2021/12/30 09:14:35;;;;;;;0.50;0.50;;;11.10;99.90;;;;;;5061575;28;20448;-82
2021/12/30 09:17:00;;;;;;;0.63;0.63;;;11.00;99.90;;;;;;5058275;28;20049;-82
2021/12/30 09:19:26;;;;;;;0.70;0.70;;;11.10;99.90;;;;;;5058681;28;20049;-83
2021/12/30 09:21:52;;;;;;;0.60;0.60;;;11.10;99.90;;;;;;5058106;28;20044;-84
2021/12/30 09:24:18;;;;;;;0.60;0.60;;;11.20;99.90;;;;;;5075997;28;20040;-84
2021/12/30 09:26:44;;;;;;;0.82;0.80;;;11.10;99.90;;;;;;5059168;28;20037;-83
2021/12/30 09:29:12;;;;;;;0.63;0.63;;;11.20;99.90;;;;;;5059491;28;20067;-81
2021/12/30 09:31:44;;;;;;;0.60;0.60;;;11.10;99.90;;;;;;5057158;28;20043;-82
2021/12/30 09:34:10;;;;;;;0.55;0.55;;;11.20;99.90;;;;;;5058697;28;20060;-82
2021/12/30 09:36:36;;;;;;;2.33;1.45;;;11.30;99.90;;;;;;5042254;28;20045;-83
2021/12/30 09:39:05;;;;;;;0.60;0.60;;;11.20;99.90;;;;;;5059233;28;20473;-82
2021/12/30 09:41:31;;;;;;;0.50;0.50;;;11.30;99.90;;;;;;5056765;28;20045;-82
2021/12/30 09:43:57;;;;;;;1.30;1.20;;;11.20;99.90;;;;;;5075945;28;20045;-85
2021/12/30 09:46:23;;;;;;;0.60;0.60;;;11.30;99.90;;;;;;5041468;28;20033;-84
2021/12/30 09:48:49;;;;;;;0.50;0.50;;;11.20;99.90;;;;;;5059522;28;20037;-84
2021/12/30 09:51:15;;;;;;;0.77;0.77;;;11.30;99.90;;;;;;5058198;28;20049;-84
2021/12/30 09:53:41;;;;;;;8.63;0.95;;;11.40;99.90;;;;;;5055922;28;20069;-85
2021/12/30 09:56:06;;;;;;;0.50;0.50;;;11.40;99.90;;;;;;5056477;28;20049;-85
2021/12/30 09:58:32;;;;;;;10.95;0.85;;;11.40;99.90;;;;;;5041161;28;20041;-83
2021/12/30 10:01:00;;;;;;;0.50;0.50;;;11.40;99.90;;;;;;5050817;28;20485;-84
2021/12/30 10:03:27;;;;;;;0.50;0.50;;;11.40;99.90;;;;;;5071126;28;20458;-84
2021/12/30 10:05:53;;;;;;;0.52;0.52;;;11.40;99.90;;;;;;5040971;28;20068;-85
2021/12/30 10:08:22;;;;;;;0.50;0.50;;;11.40;99.90;;;;;;5042117;28;20096;-85
2021/12/30 10:10:51;;;;;;;0.70;0.70;;;11.40;99.90;;;;;;5039841;28;20041;-82
2021/12/30 10:13:29;;;;;;;0.80;0.80;;;11.40;99.90;;;;;;5058475;28;20044;-84
2021/12/30 10:15:57;;;;;;;1.52;1.02;;;11.50;99.90;;;;;;5055387;28;20037;-84
2021/12/30 10:18:25;;;;;;;0.70;0.70;;;11.50;99.90;;;;;;5064469;28;20042;-82
2021/12/30 10:20:52;;;;;;;0.50;0.50;;;11.60;99.90;;;;;;5068847;28;20056;-83
2021/12/30 10:23:24;;;;;;;10.32;1.50;;;11.50;99.90;;;;;;5058052;28;20584;-83
2021/12/30 10:25:53;;;;;;;0.63;0.63;;;11.50;99.90;;;;;;5057251;28;20049;-85
2021/12/30 10:28:24;;;;;;;0.60;0.60;;;11.50;99.90;;;;;;5056721;28;20043;-81
2021/12/30 10:30:57;;;;;;;0.93;0.93;;;11.40;99.90;;;;;;5055227;28;20465;-84
2021/12/30 10:33:28;;;;;;;17.85;1.38;;;11.50;99.90;;;;;;5035652;28;20049;-82
2021/12/30 10:35:54;;;;;;;0.50;0.50;;;11.50;99.90;;;;;;5070696;28;20041;-83
2021/12/30 10:38:21;;;;;;;0.70;0.70;;;11.50;99.90;;;;;;5056676;28;20105;-82
2021/12/30 10:40:52;;;;;;;1.20;1.10;;;11.50;99.90;;;;;;5056681;28;20049;-84
2021/12/30 10:43:33;;;;;;;0.50;0.50;;;11.50;99.90;;;;;;5042142;28;20044;-82
2021/12/30 10:46:02;;;;;;;0.50;0.50;;;11.50;99.90;;;;;;5057433;28;20045;-83
2021/12/30 10:48:27;;;;;;;0.70;0.70;;;11.50;99.90;;;;;;5058915;28;20068;-84
2021/12/30 10:51:11;;;;;;;0.73;0.73;;;11.50;99.90;;;;;;5058484;28;20037;-83
2021/12/30 10:53:37;;;;;;;0.90;0.90;;;11.50;99.90;;;;;;5054338;28;20041;-81
2021/12/30 10:56:21;;;;;;;2.80;2.15;;;11.50;99.90;;;;;;5067998;28;21427;-84
2021/12/30 10:58:48;;;;;;;1.60;1.45;;;11.40;99.90;;;;;;5051440;28;20076;-83
2021/12/30 11:01:16;;;;;;;1.23;0.98;;;11.50;99.90;;;;;;5057205;28;20090;-83
2021/12/30 11:03:42;;;;;;;0.60;0.60;;;11.50;99.90;;;;;;5051854;28;20056;-82
2021/12/30 11:06:19;;;;;;;0.70;0.70;;;11.50;99.90;;;;;;5052119;28;20029;-83
2021/12/30 11:09:13;;;;;;;0.73;0.73;;;11.60;99.90;;;;;;5053158;28;20132;-84
2021/12/30 11:11:51;;;;;;;1.17;1.17;;;11.60;99.90;;;;;;5056947;28;20059;-84
2021/12/30 11:14:22;;;;;;;0.50;0.50;;;11.60;99.90;;;;;;5057863;28;20037;-84
2021/12/30 11:16:59;;;;;;;0.65;0.65;;;11.60;99.90;;;;;;5055518;28;20056;-84
2021/12/30 11:19:26;;;;;;;0.57;0.57;;;11.60;99.90;;;;;;5057794;28;20061;-83
2021/12/30 11:21:53;;;;;;;0.80;0.80;;;11.60;99.90;;;;;;5050912;28;20101;-83
2021/12/30 11:24:19;;;;;;;2.17;1.65;;;11.60;99.90;;;;;;5049827;28;20051;-84
2021/12/30 11:26:44;;;;;;;1.75;1.05;;;11.60;99.90;;;;;;5059185;28;20123;-84
2021/12/30 11:29:10;;;;;;;0.60;0.60;;;11.60;99.90;;;;;;5060233;28;20051;-83
2021/12/30 11:31:36;;;;;;;0.68;0.68;;;11.60;99.90;;;;;;5055036;28;20059;-82
2021/12/30 11:34:03;;;;;;;1.15;1.15;;;11.60;99.90;;;;;;5054431;28;20032;-83
2021/12/30 11:36:33;;;;;;;12.93;2.88;;;11.60;99.90;;;;;;5063517;28;20052;-83
2021/12/30 11:39:03;;;;;;;1.08;0.98;;;11.60;99.90;;;;;;5058204;28;20076;-84
2021/12/30 11:41:32;;;;;;;0.63;0.63;;;11.60;99.90;;;;;;5072250;28;20044;-85
2021/12/30 11:43:57;;;;;;;1.70;1.00;;;11.70;99.90;;;;;;5058858;28;20041;-83
2021/12/30 11:46:43;;;;;;;0.98;0.93;;;11.60;99.90;;;;;;5062429;28;20037;-84
2021/12/30 11:49:14;;;;;;;1.33;1.23;;;11.60;99.90;;;;;;5043222;28;20037;-84
2021/12/30 11:51:49;;;;;;;1.35;1.30;;;11.60;99.90;;;;;;5047735;28;20049;-84
2021/12/30 11:54:33;;;;;;;30.08;2.80;;;11.60;99.90;;;;;;5075962;28;20037;-84
2021/12/30 11:57:17;;;;;;;;;;;11.70;99.90;;;;;;5054932;28;20049;-83
2021/12/30 11:59:43;;;;;;;;;;;11.60;99.90;;;;;;5073213;28;19925;-84
2021/12/30 12:02:27;;;;;;;4.13;1.90;;;11.60;99.90;;;;;;5059811;28;20486;-83
2021/12/30 12:04:52;;;;;;;;;;;11.60;99.90;;;;;;5058673;28;20049;-82
2021/12/30 12:07:18;;;;;;;0.77;0.77;;;11.70;99.90;;;;;;5055414;28;19971;-83
2021/12/30 12:09:44;;;;;;;1.38;1.10;;;11.70;99.90;;;;;;5059553;28;20068;-85
2021/12/30 12:12:32;;;;;;;1.42;1.33;;;11.70;99.90;;;;;;5058766;28;20053;-84
2021/12/30 12:15:00;;;;;;;1.15;1.15;;;11.80;99.90;;;;;;5072528;28;20125;-84
2021/12/30 12:17:37;;;;;;;0.95;0.90;;;11.70;99.90;;;;;;5050829;28;20449;-84
2021/12/30 12:20:23;;;;;;;0.95;0.65;;;11.70;99.90;;;;;;5055295;28;20207;-82
2021/12/30 12:22:50;;;;;;;1.83;1.40;;;11.80;99.90;;;;;;5036928;28;20033;-84
2021/12/30 12:25:22;;;;;;;5.13;1.80;;;11.80;99.90;;;;;;5062024;28;20124;-83
2021/12/30 12:27:55;;;;;;;0.68;0.68;;;11.70;99.90;;;;;;5055881;28;20048;-83
2021/12/30 12:30:22;;;;;;;2.30;2.08;;;11.70;99.90;;;;;;5059721;28;20037;-83
2021/12/30 12:32:48;;;;;;;1.55;1.48;;;11.70;99.90;;;;;;5057775;28;20054;-84
2021/12/30 12:35:13;;;;;;;4.75;0.98;;;11.80;99.90;;;;;;5060834;28;20104;-82
2021/12/30 12:37:44;;;;;;;0.52;0.52;;;11.70;99.90;;;;;;5060854;28;20075;-83
2021/12/30 12:40:16;;;;;;;0.80;0.80;;;11.70;99.90;;;;;;5074998;28;20041;-83
2021/12/30 12:42:51;;;;;;;0.50;0.50;;;11.70;99.90;;;;;;5043035;28;20032;-83
2021/12/30 12:45:29;;;;;;;0.68;0.68;;;11.70;99.90;;;;;;5058262;28;20045;-84
2021/12/30 12:48:23;;;;;;;0.93;0.77;;;11.70;99.90;;;;;;5059530;28;20378;-83
2021/12/30 12:50:51;;;;;;;0.43;0.43;;;11.70;99.90;;;;;;5055991;28;20132;-82
2021/12/30 12:53:23;;;;;;;0.98;0.93;;;11.80;99.90;;;;;;5044278;28;20045;-84
2021/12/30 12:55:53;;;;;;;0.50;0.50;;;11.80;99.90;;;;;;5068370;28;20078;-83
2021/12/30 12:58:21;;;;;;;1.38;1.25;;;11.80;99.90;;;;;;5060142;28;20151;-82